createdAt,value
2019-02-17T00:00:58.312Z,86.69
2019-02-17T00:01:58.297Z,86.59
2019-02-17T00:02:58.265Z,86.80
2019-02-17T00:03:58.266Z,86.69
2019-02-17T00:04:58.262Z,86.69
2019-02-17T00:05:58.234Z,86.80
2019-02-17T00:06:58.255Z,87.42
2019-02-17T00:07:58.212Z,86.80
2019-02-17T00:08:58.201Z,87.32
2019-02-17T00:09:58.195Z,87.21
2019-02-17T00:10:58.181Z,87.01
2019-02-17T00:11:58.193Z,87.01
2019-02-17T00:12:58.153Z,86.69
2019-02-17T00:13:58.150Z,86.59
2019-02-17T00:14:58.156Z,87.01
2019-02-17T00:15:58.125Z,86.83
2019-02-17T00:16:58.154Z,87.32
2019-02-17T00:17:58.131Z,86.94
2019-02-17T00:18:58.091Z,87.46
2019-02-17T00:19:58.079Z,87.66
2019-02-17T00:20:58.072Z,87.46
2019-02-17T00:21:58.090Z,87.46
2019-02-17T00:22:58.128Z,87.25
2019-02-17T00:23:58.070Z,87.46
2019-02-17T00:24:58.021Z,87.98
2019-02-17T00:25:58.011Z,88.09
2019-02-17T00:26:58.035Z,88.29
2019-02-17T00:27:58.017Z,87.98
2019-02-17T00:28:59.794Z,88.40
2019-02-17T00:29:57.970Z,87.56
2019-02-17T00:30:57.954Z,87.56
2019-02-17T00:31:57.946Z,87.56
2019-02-17T00:32:57.954Z,88.50
2019-02-17T00:33:57.949Z,88.29
2019-02-17T00:34:57.913Z,87.98
2019-02-17T00:35:57.907Z,88.50
2019-02-17T00:36:57.920Z,88.29
2019-02-17T00:37:57.910Z,88.29
2019-02-17T00:38:57.873Z,87.98
2019-02-17T00:39:57.864Z,88.12
2019-02-17T00:40:57.854Z,88.40
2019-02-17T00:41:57.839Z,88.33
2019-02-17T00:42:57.850Z,87.98
2019-02-17T00:43:57.824Z,88.19
2019-02-17T00:44:57.808Z,88.43
2019-02-17T00:45:57.792Z,88.43
2019-02-17T00:46:57.789Z,88.02
2019-02-17T00:47:57.797Z,88.02
2019-02-17T00:48:57.759Z,88.12
2019-02-17T00:49:57.757Z,88.12
2019-02-17T00:50:57.753Z,87.60
2019-02-17T00:51:57.732Z,87.81
2019-02-17T00:52:57.731Z,88.12
2019-02-17T00:53:57.730Z,88.54
2019-02-17T00:54:57.701Z,88.85
2019-02-17T00:55:57.690Z,88.85
2019-02-17T00:56:57.678Z,88.64
2019-02-17T00:57:57.659Z,88.64
2019-02-17T00:58:57.707Z,88.12
2019-02-17T00:59:57.658Z,88.02
2019-02-17T01:00:57.631Z,87.92
2019-02-17T01:01:57.630Z,88.85
2019-02-17T01:02:57.608Z,88.54
2019-02-17T01:03:57.619Z,88.64
2019-02-17T01:04:57.589Z,87.92
2019-02-17T01:05:57.577Z,88.75
2019-02-17T01:06:57.573Z,88.54
2019-02-17T01:07:57.561Z,88.64
2019-02-17T01:08:57.618Z,88.64
2019-02-17T01:09:57.532Z,88.54
2019-02-17T01:10:57.528Z,88.54
2019-02-17T01:11:57.517Z,88.75
2019-02-17T01:12:57.537Z,88.02
2019-02-17T01:13:57.515Z,87.92
2019-02-17T01:14:57.524Z,87.92
2019-02-17T01:15:57.473Z,88.23
2019-02-17T01:16:57.461Z,88.12
2019-02-17T01:17:57.447Z,88.12
2019-02-17T01:18:57.474Z,88.12
2019-02-17T01:19:57.453Z,88.33
2019-02-17T01:20:57.416Z,88.23
2019-02-17T01:21:57.404Z,88.43
2019-02-17T01:22:57.438Z,88.12
2019-02-17T01:23:57.377Z,88.23
2019-02-17T01:24:57.396Z,87.71
2019-02-17T01:25:57.357Z,88.02
2019-02-17T01:26:57.373Z,88.02
2019-02-17T01:27:57.338Z,88.23
2019-02-17T01:28:57.329Z,87.92
2019-02-17T01:29:57.345Z,88.02
2019-02-17T01:30:57.309Z,87.96
2019-02-17T01:31:57.294Z,88.64
2019-02-17T01:32:57.283Z,88.89
2019-02-17T01:33:57.300Z,88.48
2019-02-17T01:34:57.287Z,88.58
2019-02-17T01:35:57.272Z,88.79
2019-02-17T01:36:57.247Z,89.00
2019-02-17T01:37:58.319Z,88.79
2019-02-17T01:38:57.221Z,89.00
2019-02-17T01:39:57.234Z,88.89
2019-02-17T01:40:57.208Z,88.27
2019-02-17T01:41:57.199Z,88.79
2019-02-17T01:42:57.173Z,88.89
2019-02-17T01:43:57.202Z,88.37
2019-02-17T01:44:57.175Z,88.79
2019-02-17T01:45:57.147Z,89.20
2019-02-17T01:46:57.129Z,89.20
2019-02-17T01:47:57.132Z,89.31
2019-02-17T01:48:57.130Z,89.20
2019-02-17T01:49:57.130Z,89.20
2019-02-17T01:50:57.081Z,88.68
2019-02-17T01:51:57.076Z,88.89
2019-02-17T01:52:57.063Z,88.85
2019-02-17T01:53:57.136Z,88.89
2019-02-17T01:54:57.133Z,88.68
2019-02-17T01:55:57.045Z,88.79
2019-02-17T01:56:57.018Z,89.00
2019-02-17T01:57:57.020Z,88.68
2019-02-17T01:58:57.017Z,88.68
2019-02-17T01:59:57.024Z,88.89
2019-02-17T02:00:56.976Z,88.89
2019-02-17T02:01:56.966Z,88.79
2019-02-17T02:02:56.950Z,89.10
2019-02-17T02:03:56.952Z,88.89
2019-02-17T02:04:56.958Z,88.48
2019-02-17T02:05:56.915Z,88.48
2019-02-17T02:06:56.916Z,88.79
2019-02-17T02:07:56.899Z,88.58
2019-02-17T02:08:56.947Z,87.96
2019-02-17T02:09:56.925Z,88.68
2019-02-17T02:10:56.887Z,88.68
2019-02-17T02:11:56.867Z,88.68
2019-02-17T02:12:56.845Z,88.68
2019-02-17T02:13:56.834Z,88.27
2019-02-17T02:14:56.857Z,88.17
2019-02-17T02:15:56.821Z,88.27
2019-02-17T02:16:56.821Z,88.37
2019-02-17T02:17:56.791Z,88.06
2019-02-17T02:18:56.779Z,88.37
2019-02-17T02:19:56.813Z,88.79
2019-02-17T02:20:56.768Z,88.27
2019-02-17T02:21:56.792Z,88.06
2019-02-17T02:22:56.734Z,88.17
2019-02-17T02:23:56.728Z,88.17
2019-02-17T02:24:56.747Z,87.79
2019-02-17T02:25:56.728Z,88.31
2019-02-17T02:26:56.699Z,88.17
2019-02-17T02:27:56.702Z,88.17
2019-02-17T02:28:56.673Z,88.17
2019-02-17T02:29:56.671Z,87.96
2019-02-17T02:30:56.674Z,88.06
2019-02-17T02:31:56.658Z,88.17
2019-02-17T02:32:56.641Z,88.06
2019-02-17T02:33:56.613Z,88.17
2019-02-17T02:34:56.652Z,87.85
2019-02-17T02:35:56.621Z,88.06
2019-02-17T02:36:56.592Z,88.10
2019-02-17T02:37:56.579Z,88.27
2019-02-17T02:38:56.577Z,87.75
2019-02-17T02:39:56.547Z,88.17
2019-02-17T02:40:56.592Z,88.27
2019-02-17T02:41:56.523Z,88.06
2019-02-17T02:42:56.514Z,88.06
2019-02-17T02:43:56.524Z,88.37
2019-02-17T02:44:56.507Z,88.37
2019-02-17T02:45:56.520Z,88.17
2019-02-17T02:46:56.476Z,88.20
2019-02-17T02:47:56.466Z,88.10
2019-02-17T02:48:56.453Z,87.85
2019-02-17T02:49:56.441Z,87.96
2019-02-17T02:50:56.465Z,88.06
2019-02-17T02:51:56.419Z,87.89
2019-02-17T02:52:56.408Z,88.27
2019-02-17T02:53:56.394Z,88.27
2019-02-17T02:54:56.390Z,88.20
2019-02-17T02:55:56.487Z,88.93
2019-02-17T02:56:56.420Z,88.93
2019-02-17T02:57:56.358Z,88.68
2019-02-17T02:58:56.341Z,88.20
2019-02-17T02:59:56.336Z,88.73
2019-02-17T03:00:56.340Z,88.73
2019-02-17T03:01:56.382Z,88.73
2019-02-17T03:02:56.301Z,88.83
2019-02-17T03:03:56.283Z,89.25
2019-02-17T03:04:56.278Z,88.73
2019-02-17T03:05:56.264Z,88.93
2019-02-17T03:06:56.272Z,88.73
2019-02-17T03:07:56.237Z,88.83
2019-02-17T03:08:56.238Z,89.14
2019-02-17T03:09:56.221Z,88.93
2019-02-17T03:10:56.229Z,88.52
2019-02-17T03:11:56.238Z,88.83
2019-02-17T03:12:56.194Z,88.62
2019-02-17T03:13:56.183Z,88.62
2019-02-17T03:14:56.174Z,88.52
2019-02-17T03:15:56.160Z,88.52
2019-02-17T03:16:56.170Z,88.62
2019-02-17T03:17:56.141Z,88.73
2019-02-17T03:18:56.120Z,88.56
2019-02-17T03:19:56.112Z,88.52
2019-02-17T03:20:56.180Z,88.31
2019-02-17T03:21:56.130Z,88.98
2019-02-17T03:22:56.104Z,88.35
2019-02-17T03:23:56.078Z,88.42
2019-02-17T03:24:56.083Z,88.66
2019-02-17T03:25:56.043Z,88.87
2019-02-17T03:26:56.055Z,88.66
2019-02-17T03:27:56.068Z,89.29
2019-02-17T03:28:56.010Z,88.98
2019-02-17T03:30:04.445Z,89.29
2019-02-17T03:30:56.986Z,89.29
2019-02-17T03:31:56.001Z,89.39
2019-02-17T03:32:55.990Z,89.18
2019-02-17T03:33:55.958Z,89.39
2019-02-17T03:34:55.952Z,89.39
2019-02-17T03:35:55.950Z,89.18
2019-02-17T03:36:55.918Z,89.25
2019-02-17T03:37:55.935Z,89.60
2019-02-17T03:38:55.905Z,89.70
2019-02-17T03:39:55.895Z,89.29
2019-02-17T03:40:55.882Z,89.18
2019-02-17T03:41:55.870Z,88.73
2019-02-17T03:42:55.900Z,88.87
2019-02-17T03:43:55.841Z,89.18
2019-02-17T03:44:55.856Z,89.70
2019-02-17T03:45:55.821Z,89.56
2019-02-17T03:46:55.824Z,90.22
2019-02-17T03:47:55.837Z,90.01
2019-02-17T03:48:55.787Z,89.91
2019-02-17T03:49:55.786Z,89.91
2019-02-17T03:50:55.822Z,90.12
2019-02-17T03:51:55.770Z,89.81
2019-02-17T03:52:55.774Z,89.81
2019-02-17T03:53:55.761Z,89.76
2019-02-17T03:54:55.740Z,90.12
2019-02-17T03:55:55.730Z,90.12
2019-02-17T03:56:55.704Z,90.01
2019-02-17T03:57:55.706Z,90.01
2019-02-17T03:58:55.713Z,89.70
2019-02-17T03:59:55.679Z,90.01
2019-02-17T04:00:55.657Z,90.01
2019-02-17T04:01:55.656Z,89.91
2019-02-17T04:02:55.686Z,90.08
2019-02-17T04:03:55.672Z,89.91
2019-02-17T04:04:55.623Z,90.12
2019-02-17T04:05:55.607Z,90.01
2019-02-17T04:06:55.598Z,89.70
2019-02-17T04:07:55.583Z,89.70
2019-02-17T04:08:55.601Z,89.91
2019-02-17T04:09:55.596Z,89.91
2019-02-17T04:10:55.548Z,90.22
2019-02-17T04:11:55.542Z,90.01
2019-02-17T04:12:55.553Z,89.91
2019-02-17T04:13:55.544Z,90.12
2019-02-17T04:14:55.579Z,90.12
2019-02-17T04:15:55.509Z,90.22
2019-02-17T04:16:55.488Z,90.33
2019-02-17T04:17:55.541Z,90.33
2019-02-17T04:18:55.528Z,90.22
2019-02-17T04:19:55.469Z,89.91
2019-02-17T04:20:55.466Z,89.81
2019-02-17T04:21:55.429Z,90.22
2019-02-17T04:22:55.449Z,90.22
2019-02-17T04:23:55.433Z,90.12
2019-02-17T04:24:55.399Z,89.70
2019-02-17T04:25:55.409Z,89.91
2019-02-17T04:26:55.390Z,90.12
2019-02-17T04:27:55.369Z,89.91
2019-02-17T04:28:55.380Z,90.22
2019-02-17T04:29:55.384Z,90.22
2019-02-17T04:30:55.338Z,90.12
2019-02-17T04:31:55.329Z,90.01
2019-02-17T04:32:55.310Z,90.22
2019-02-17T04:33:55.295Z,90.01
2019-02-17T04:34:55.306Z,89.81
2019-02-17T04:35:55.294Z,90.26
2019-02-17T04:36:55.261Z,89.70
2019-02-17T04:37:55.268Z,89.39
2019-02-17T04:38:55.239Z,89.18
2019-02-17T04:39:55.266Z,89.29
2019-02-17T04:40:55.217Z,89.39
2019-02-17T04:41:55.207Z,89.50
2019-02-17T04:42:55.199Z,89.60
2019-02-17T04:43:55.196Z,89.75
2019-02-17T04:44:55.211Z,89.70
2019-02-17T04:45:55.178Z,89.70
2019-02-17T04:46:55.156Z,89.39
2019-02-17T04:47:55.153Z,89.54
2019-02-17T04:48:55.137Z,89.29
2019-02-17T04:49:55.141Z,88.98
2019-02-17T04:50:55.110Z,88.76
2019-02-17T04:51:55.105Z,88.98
2019-02-17T04:52:55.090Z,88.35
2019-02-17T04:53:55.072Z,89.01
2019-02-17T04:54:55.168Z,88.91
2019-02-17T04:55:55.051Z,88.81
2019-02-17T04:56:55.051Z,89.01
2019-02-17T04:57:55.036Z,88.70
2019-02-17T04:58:55.087Z,88.81
2019-02-17T04:59:55.037Z,88.70
2019-02-17T05:00:55.007Z,88.70
2019-02-17T05:01:54.989Z,88.91
2019-02-17T05:02:54.975Z,89.01
2019-02-17T05:03:54.973Z,88.49
2019-02-17T05:04:54.976Z,88.81
2019-02-17T05:05:54.975Z,88.81
2019-02-17T05:06:54.936Z,89.43
2019-02-17T05:07:54.926Z,88.91
2019-02-17T05:08:54.908Z,89.22
2019-02-17T05:09:54.905Z,89.22
2019-02-17T05:10:54.915Z,89.01
2019-02-17T05:11:54.876Z,89.01
2019-02-17T05:12:54.885Z,88.60
2019-02-17T05:13:54.861Z,88.60
2019-02-17T05:14:54.850Z,89.01
2019-02-17T05:15:54.865Z,88.81
2019-02-17T05:16:54.822Z,89.01
2019-02-17T05:17:54.830Z,88.70
2019-02-17T05:18:54.815Z,88.91
2019-02-17T05:19:54.796Z,88.39
2019-02-17T05:20:54.801Z,88.70
2019-02-17T05:21:54.784Z,89.32
2019-02-17T05:22:54.758Z,89.12
2019-02-17T05:23:54.763Z,89.43
2019-02-17T05:24:54.744Z,89.43
2019-02-17T05:25:54.767Z,89.47
2019-02-17T05:26:54.745Z,89.85
2019-02-17T05:27:54.721Z,89.85
2019-02-17T05:28:56.509Z,89.26
2019-02-17T05:29:54.700Z,89.47
2019-02-17T05:30:54.667Z,89.32
2019-02-17T05:31:54.723Z,89.68
2019-02-17T05:32:54.654Z,89.78
2019-02-17T05:33:54.638Z,89.32
2019-02-17T05:34:54.638Z,89.75
2019-02-17T05:35:54.621Z,90.31
2019-02-17T05:36:54.631Z,89.78
2019-02-17T05:37:54.608Z,90.20
2019-02-17T05:38:54.586Z,90.10
2019-02-17T05:39:54.581Z,90.10
2019-02-17T05:40:54.567Z,90.06
2019-02-17T05:41:54.578Z,90.20
2019-02-17T05:42:54.561Z,90.00
2019-02-17T05:43:54.533Z,90.20
2019-02-17T05:44:54.537Z,90.10
2019-02-17T05:45:54.506Z,90.10
2019-02-17T05:46:54.522Z,90.00
2019-02-17T05:47:54.493Z,90.10
2019-02-17T05:48:54.478Z,90.20
2019-02-17T05:49:54.466Z,89.78
2019-02-17T05:50:54.455Z,90.06
2019-02-17T05:51:54.473Z,90.00
2019-02-17T05:52:54.461Z,90.31
2019-02-17T05:53:54.421Z,90.20
2019-02-17T05:54:54.406Z,90.10
2019-02-17T05:55:54.416Z,90.20
2019-02-17T05:56:54.386Z,90.14
2019-02-17T05:57:54.426Z,90.10
2019-02-17T05:58:54.380Z,90.00
2019-02-17T05:59:54.389Z,90.10
2019-02-17T06:01:03.310Z,89.78
2019-02-17T06:01:55.327Z,89.89
2019-02-17T06:02:54.346Z,89.78
2019-02-17T06:03:54.309Z,90.10
2019-02-17T06:04:54.303Z,90.10
2019-02-17T06:05:54.295Z,90.35
2019-02-17T06:06:54.281Z,90.00
2019-02-17T06:07:54.324Z,90.10
2019-02-17T06:08:54.258Z,90.20
2019-02-17T06:09:54.248Z,90.03
2019-02-17T06:10:54.261Z,90.00
2019-02-17T06:11:54.262Z,90.25
2019-02-17T06:12:54.244Z,90.45
2019-02-17T06:13:54.228Z,90.25
2019-02-17T06:14:54.199Z,90.10
2019-02-17T06:15:54.190Z,90.35
2019-02-17T06:16:54.188Z,90.14
2019-02-17T06:17:54.189Z,90.56
2019-02-17T06:18:54.181Z,90.66
2019-02-17T06:19:54.133Z,90.03
2019-02-17T06:20:54.152Z,90.25
2019-02-17T06:21:54.110Z,90.77
2019-02-17T06:22:54.111Z,90.14
2019-02-17T06:23:54.126Z,90.35
2019-02-17T06:24:54.077Z,90.35
2019-02-17T06:25:54.073Z,90.25
2019-02-17T06:26:54.059Z,90.25
2019-02-17T06:27:54.046Z,90.25
2019-02-17T06:28:54.065Z,90.45
2019-02-17T06:29:54.028Z,90.56
2019-02-17T06:30:54.012Z,90.25
2019-02-17T06:31:54.001Z,90.45
2019-02-17T06:32:54.000Z,90.56
2019-02-17T06:33:54.030Z,90.41
2019-02-17T06:34:53.971Z,90.14
2019-02-17T06:35:53.968Z,90.45
2019-02-17T06:36:53.950Z,90.45
2019-02-17T06:37:53.945Z,90.25
2019-02-17T06:38:53.975Z,91.08
2019-02-17T06:39:53.918Z,90.25
2019-02-17T06:40:53.989Z,90.56
2019-02-17T06:41:53.922Z,90.45
2019-02-17T06:42:53.884Z,90.77
2019-02-17T06:43:53.915Z,90.35
2019-02-17T06:44:53.861Z,90.87
2019-02-17T06:45:53.864Z,90.45
2019-02-17T06:46:53.854Z,90.56
2019-02-17T06:47:53.832Z,90.35
2019-02-17T06:48:53.845Z,90.66
2019-02-17T06:49:53.845Z,90.77
2019-02-17T06:50:53.807Z,91.08
2019-02-17T06:51:53.792Z,90.87
2019-02-17T06:52:53.774Z,91.18
2019-02-17T06:53:53.762Z,91.18
2019-02-17T06:54:53.776Z,90.97
2019-02-17T06:55:53.739Z,91.08
2019-02-17T06:56:53.747Z,91.08
2019-02-17T06:57:53.720Z,90.87
2019-02-17T06:58:53.705Z,90.87
2019-02-17T06:59:53.734Z,91.08
2019-02-17T07:00:53.688Z,90.97
2019-02-17T07:01:53.673Z,91.08
2019-02-17T07:02:53.665Z,90.97
2019-02-17T07:03:53.664Z,91.18
2019-02-17T07:04:53.683Z,90.97
2019-02-17T07:05:53.634Z,90.97
2019-02-17T07:06:53.621Z,90.97
2019-02-17T07:07:53.620Z,91.08
2019-02-17T07:08:53.653Z,90.77
2019-02-17T07:09:53.622Z,90.97
2019-02-17T07:10:53.581Z,91.08
2019-02-17T07:11:53.566Z,91.08
2019-02-17T07:12:53.571Z,90.97
2019-02-17T07:13:53.547Z,91.08
2019-02-17T07:14:53.568Z,90.77
2019-02-17T07:15:53.520Z,91.18
2019-02-17T07:16:53.516Z,90.97
2019-02-17T07:17:53.497Z,91.25
2019-02-17T07:18:53.490Z,91.04
2019-02-17T07:19:53.544Z,91.04
2019-02-17T07:20:53.467Z,91.04
2019-02-17T07:21:53.462Z,90.62
2019-02-17T07:22:53.440Z,91.25
2019-02-17T07:23:53.435Z,90.72
2019-02-17T07:24:53.450Z,91.00
2019-02-17T07:25:53.440Z,90.72
2019-02-17T07:26:53.406Z,90.89
2019-02-17T07:27:53.385Z,90.68
2019-02-17T07:28:53.381Z,90.58
2019-02-17T07:29:53.372Z,90.83
2019-02-17T07:30:53.380Z,90.52
2019-02-17T07:31:53.345Z,90.41
2019-02-17T07:32:53.357Z,90.52
2019-02-17T07:33:53.328Z,90.16
2019-02-17T07:34:53.324Z,90.16
2019-02-17T07:35:53.341Z,90.06
2019-02-17T07:36:53.295Z,90.16
2019-02-17T07:37:53.304Z,89.95
2019-02-17T07:38:53.272Z,90.16
2019-02-17T07:39:53.254Z,90.37
2019-02-17T07:40:53.284Z,90.06
2019-02-17T07:41:53.233Z,90.01
2019-02-17T07:42:53.227Z,89.91
2019-02-17T07:43:53.229Z,89.70
2019-02-17T07:44:53.208Z,89.70
2019-02-17T07:45:53.364Z,89.91
2019-02-17T07:46:53.179Z,90.22
2019-02-17T07:47:53.185Z,90.33
2019-02-17T07:48:53.156Z,89.60
2019-02-17T07:49:53.148Z,89.70
2019-02-17T07:50:53.178Z,89.60
2019-02-17T07:51:53.134Z,88.66
2019-02-17T07:52:53.112Z,88.98
2019-02-17T07:53:53.107Z,89.04
2019-02-17T07:54:53.098Z,88.76
2019-02-17T07:55:53.108Z,88.98
2019-02-17T07:56:53.105Z,88.56
2019-02-17T07:57:53.059Z,88.73
2019-02-17T07:58:53.060Z,88.83
2019-02-17T07:59:53.040Z,88.20
2019-02-17T08:00:53.039Z,88.20
2019-02-17T08:01:53.044Z,87.79
2019-02-17T08:02:53.008Z,87.89
2019-02-17T08:03:52.993Z,87.99
2019-02-17T08:04:52.985Z,87.89
2019-02-17T08:05:52.970Z,88.20
2019-02-17T08:06:52.989Z,87.79
2019-02-17T08:07:52.953Z,87.12
2019-02-17T08:08:52.950Z,86.85
2019-02-17T08:09:52.931Z,87.02
2019-02-17T08:10:52.925Z,87.23
2019-02-17T08:11:52.947Z,87.43
2019-02-17T08:12:52.909Z,87.33
2019-02-17T08:13:52.896Z,87.12
2019-02-17T08:14:52.876Z,86.77
2019-02-17T08:15:52.862Z,86.77
2019-02-17T08:16:52.886Z,86.57
2019-02-17T08:17:52.875Z,86.25
2019-02-17T08:18:52.897Z,85.83
2019-02-17T08:19:52.846Z,85.83
2019-02-17T08:20:52.812Z,86.15
2019-02-17T08:21:52.865Z,86.15
2019-02-17T08:22:52.789Z,86.15
2019-02-17T08:23:52.787Z,86.15
2019-02-17T08:24:52.781Z,86.25
2019-02-17T08:25:52.811Z,86.00
2019-02-17T08:26:52.741Z,85.69
2019-02-17T08:27:52.774Z,85.90
2019-02-17T08:28:52.736Z,85.80
2019-02-17T08:29:52.724Z,85.90
2019-02-17T08:30:52.712Z,85.90
2019-02-17T08:31:55.797Z,85.90
2019-02-17T08:32:52.723Z,86.17
2019-02-17T08:33:52.679Z,85.86
2019-02-17T08:34:53.222Z,85.55
2019-02-17T08:35:52.655Z,86.27
2019-02-17T08:36:52.660Z,85.86
2019-02-17T08:37:52.674Z,85.86
2019-02-17T08:38:52.610Z,85.90
2019-02-17T08:39:52.609Z,85.86
2019-02-17T08:40:52.598Z,86.07
2019-02-17T08:41:52.611Z,86.17
2019-02-17T08:42:52.594Z,86.17
2019-02-17T08:43:52.567Z,85.75
2019-02-17T08:44:52.567Z,85.86
2019-02-17T08:45:52.540Z,85.44
2019-02-17T08:46:52.532Z,86.03
2019-02-17T08:47:52.540Z,86.07
2019-02-17T08:48:52.506Z,85.61
2019-02-17T08:49:52.499Z,85.51
2019-02-17T08:50:52.486Z,85.55
2019-02-17T08:51:52.500Z,85.86
2019-02-17T08:52:52.486Z,85.20
2019-02-17T08:53:52.478Z,84.78
2019-02-17T08:54:52.464Z,84.58
2019-02-17T08:55:52.443Z,84.37
2019-02-17T08:56:52.425Z,83.91
2019-02-17T08:57:52.435Z,84.58
2019-02-17T08:58:52.597Z,84.74
2019-02-17T08:59:52.388Z,84.84
2019-02-17T09:00:52.375Z,85.05
2019-02-17T09:01:52.367Z,85.05
2019-02-17T09:02:52.353Z,84.74
2019-02-17T09:03:52.376Z,84.74
2019-02-17T09:04:52.457Z,84.74
2019-02-17T09:05:52.329Z,84.43
2019-02-17T09:06:52.323Z,84.12
2019-02-17T09:07:52.327Z,84.50
2019-02-17T09:08:52.329Z,84.50
2019-02-17T09:09:52.289Z,84.50
2019-02-17T09:10:52.271Z,84.08
2019-02-17T09:11:52.265Z,83.77
2019-02-17T09:12:52.269Z,84.39
2019-02-17T09:13:52.273Z,84.70
2019-02-17T09:14:52.257Z,84.50
2019-02-17T09:15:52.213Z,84.91
2019-02-17T09:16:52.223Z,84.67
2019-02-17T09:17:52.223Z,84.81
2019-02-17T09:18:52.209Z,84.91
2019-02-17T09:19:52.175Z,85.33
2019-02-17T09:20:52.163Z,85.33
2019-02-17T09:21:52.156Z,85.33
2019-02-17T09:22:52.142Z,85.12
2019-02-17T09:23:52.182Z,85.02
2019-02-17T09:24:52.113Z,85.19
2019-02-17T09:25:52.103Z,84.88
2019-02-17T09:26:52.100Z,84.77
2019-02-17T09:27:52.084Z,84.98
2019-02-17T09:28:52.085Z,84.46
2019-02-17T09:29:52.110Z,84.56
2019-02-17T09:30:52.070Z,83.90
